createdAt,value
2022-10-19T00:00:51.840Z,88.77
2022-10-19T00:03:35.339Z,88.90
2022-10-19T00:06:17.517Z,89.28
2022-10-19T00:08:49.474Z,89.37
2022-10-19T00:11:22.104Z,89.62
2022-10-19T00:13:54.986Z,89.63
2022-10-19T00:16:29.233Z,89.72
2022-10-19T00:19:03.057Z,89.64
2022-10-19T00:21:35.265Z,89.86
2022-10-19T00:24:08.526Z,89.83
2022-10-19T00:26:40.661Z,89.54
2022-10-19T00:29:14.248Z,89.31
2022-10-19T00:31:46.511Z,89.40
2022-10-19T00:34:18.543Z,89.41
2022-10-19T00:36:50.436Z,89.36
2022-10-19T00:39:22.347Z,89.70
2022-10-19T00:41:52.747Z,89.65
2022-10-19T00:45:10.746Z,89.65
2022-10-19T00:47:43.854Z,89.52
2022-10-19T00:50:17.439Z,89.52
2022-10-19T00:52:49.553Z,89.69
2022-10-19T00:55:22.082Z,89.78
2022-10-19T00:57:53.903Z,90.01
2022-10-19T01:00:25.817Z,90.10
2022-10-19T01:02:58.943Z,90.07
2022-10-19T01:05:31.918Z,90.01
2022-10-19T01:08:04.409Z,90.19
2022-10-19T01:10:44.015Z,90.11
2022-10-19T01:13:32.338Z,90.03
2022-10-19T01:16:12.025Z,90.18
2022-10-19T01:18:51.833Z,90.15
2022-10-19T01:21:26.391Z,90.30
2022-10-19T01:24:44.458Z,90.43
2022-10-19T01:27:44.967Z,90.58
2022-10-19T01:30:20.745Z,90.67
2022-10-19T01:33:03.589Z,90.90
2022-10-19T01:35:44.670Z,90.70
2022-10-19T01:38:29.514Z,90.76
2022-10-19T01:41:11.518Z,90.56
2022-10-19T01:43:47.584Z,90.65
2022-10-19T01:46:24.057Z,90.54
2022-10-19T01:49:03.136Z,90.38
2022-10-19T01:51:39.671Z,90.41
2022-10-19T01:54:14.769Z,90.15
2022-10-19T01:56:49.604Z,90.24
2022-10-19T01:59:22.346Z,90.07
2022-10-19T02:01:55.733Z,90.32
2022-10-19T02:04:28.320Z,90.25
2022-10-19T02:07:02.863Z,90.22
2022-10-19T02:09:34.743Z,90.17
2022-10-19T02:12:09.632Z,90.33
2022-10-19T02:14:44.449Z,90.52
2022-10-19T02:17:19.378Z,90.55
2022-10-19T02:19:51.735Z,90.25
2022-10-19T02:22:23.749Z,90.65
2022-10-19T02:24:55.665Z,90.44
2022-10-19T02:27:27.937Z,90.50
2022-10-19T02:30:00.165Z,90.66
2022-10-19T02:32:32.447Z,90.54
2022-10-19T02:35:05.030Z,90.66
2022-10-19T02:37:37.200Z,90.66
2022-10-19T02:40:09.132Z,90.49
2022-10-19T02:42:46.458Z,90.81
2022-10-19T02:45:24.079Z,90.73
2022-10-19T02:47:59.882Z,90.72
2022-10-19T02:50:32.227Z,90.54
2022-10-19T02:53:04.435Z,90.71
2022-10-19T02:55:36.685Z,90.82
2022-10-19T02:58:09.114Z,90.49
2022-10-19T03:00:41.052Z,90.53
2022-10-19T03:03:11.854Z,90.54
2022-10-19T03:05:44.013Z,90.56
2022-10-19T03:08:14.322Z,90.30
2022-10-19T03:10:46.262Z,90.28
2022-10-19T03:13:18.242Z,90.43
2022-10-19T03:15:48.617Z,90.33
2022-10-19T03:18:20.555Z,90.48
2022-10-19T03:20:52.333Z,90.20
2022-10-19T03:23:24.345Z,90.24
2022-10-19T03:25:54.641Z,89.98
2022-10-19T03:28:26.911Z,89.92
2022-10-19T03:30:57.676Z,90.02
2022-10-19T03:33:29.541Z,90.19
2022-10-19T03:36:22.793Z,90.36
2022-10-19T03:38:56.032Z,90.32
2022-10-19T03:41:29.852Z,89.87
2022-10-19T03:44:02.383Z,89.90
2022-10-19T03:46:34.352Z,90.20
2022-10-19T03:49:04.911Z,90.14
2022-10-19T03:51:37.289Z,90.28
2022-10-19T03:54:16.553Z,90.25
2022-10-19T03:56:48.510Z,90.36
2022-10-19T03:59:18.941Z,90.22
2022-10-19T04:01:50.753Z,90.01
2022-10-19T04:04:22.946Z,89.78
2022-10-19T04:06:54.835Z,90.09
2022-10-19T04:09:26.803Z,89.99
2022-10-19T04:11:58.657Z,89.88
2022-10-19T04:14:33.190Z,89.77
2022-10-19T04:17:11.984Z,89.78
2022-10-19T04:19:43.839Z,89.99
2022-10-19T04:22:16.978Z,90.03
2022-10-19T04:24:48.943Z,89.80
2022-10-19T04:27:20.887Z,89.83
2022-10-19T04:29:53.075Z,90.01
2022-10-19T04:32:23.310Z,90.25
2022-10-19T04:34:55.438Z,90.34
2022-10-19T04:37:27.472Z,90.42
2022-10-19T04:39:59.829Z,90.10
2022-10-19T04:42:31.848Z,90.01
2022-10-19T04:45:03.890Z,90.14
2022-10-19T04:47:36.533Z,90.03
2022-10-19T04:50:09.853Z,90.07
2022-10-19T04:52:41.828Z,90.18
2022-10-19T04:55:13.698Z,90.30
2022-10-19T04:57:45.607Z,90.28
2022-10-19T05:00:18.592Z,90.52
2022-10-19T05:02:52.808Z,90.71
2022-10-19T05:05:26.604Z,90.78
2022-10-19T05:07:58.642Z,91.13
2022-10-19T05:10:29.081Z,91.24
2022-10-19T05:13:03.402Z,91.44
2022-10-19T05:15:35.357Z,91.34
2022-10-19T05:18:05.772Z,91.47
2022-10-19T05:20:39.030Z,91.50
2022-10-19T05:23:12.383Z,91.73
2022-10-19T05:25:42.770Z,91.68
2022-10-19T05:28:14.613Z,91.57
2022-10-19T05:31:30.850Z,91.54
2022-10-19T05:34:28.189Z,91.83
2022-10-19T05:37:00.071Z,91.69
2022-10-19T05:39:32.328Z,91.63
2022-10-19T05:42:04.363Z,91.53
2022-10-19T05:44:34.793Z,91.42
2022-10-19T05:47:06.871Z,91.56
2022-10-19T05:49:37.339Z,91.50
2022-10-19T05:52:09.381Z,91.70
2022-10-19T05:54:39.743Z,91.74
2022-10-19T05:57:11.602Z,91.79
2022-10-19T05:59:43.497Z,91.98
2022-10-19T06:02:16.686Z,92.07
2022-10-19T06:04:48.518Z,92.15
2022-10-19T06:07:20.540Z,92.17
2022-10-19T06:09:52.461Z,92.17
2022-10-19T06:12:25.066Z,91.89
2022-10-19T06:14:57.220Z,91.95
2022-10-19T06:17:31.013Z,91.90
2022-10-19T06:20:03.055Z,91.79
2022-10-19T06:22:35.145Z,91.42
2022-10-19T06:25:06.070Z,91.22
2022-10-19T06:27:38.348Z,91.14
2022-10-19T06:30:13.031Z,91.03
2022-10-19T06:32:45.179Z,91.04
2022-10-19T06:35:16.129Z,91.00
2022-10-19T06:37:48.270Z,91.22
2022-10-19T06:40:19.056Z,91.21
2022-10-19T06:42:51.071Z,91.15
2022-10-19T06:45:23.159Z,90.96
2022-10-19T06:47:53.662Z,90.88
2022-10-19T06:50:25.602Z,90.67
2022-10-19T06:52:56.021Z,90.26
2022-10-19T06:55:27.986Z,90.21
2022-10-19T06:58:01.804Z,89.41
2022-10-19T07:00:33.890Z,88.13
2022-10-19T07:03:06.126Z,87.60
2022-10-19T07:05:38.175Z,87.63
2022-10-19T07:08:10.417Z,87.16
2022-10-19T07:10:42.506Z,86.53
2022-10-19T07:13:14.518Z,85.67
2022-10-19T07:15:46.692Z,85.24
2022-10-19T07:18:18.802Z,84.77
2022-10-19T07:20:58.687Z,83.91
2022-10-19T07:23:32.694Z,83.08
2022-10-19T07:26:09.733Z,82.55
2022-10-19T07:28:43.434Z,82.37
2022-10-19T07:31:17.884Z,82.05
2022-10-19T07:33:53.212Z,82.40
2022-10-19T07:36:26.232Z,82.23
2022-10-19T07:38:58.258Z,80.97
2022-10-19T07:41:28.659Z,80.92
2022-10-19T07:44:00.570Z,81.04
2022-10-19T07:46:34.461Z,81.08
2022-10-19T07:49:09.740Z,81.13
2022-10-19T07:51:41.982Z,80.84
2022-10-19T07:54:14.310Z,81.10
2022-10-19T07:56:46.516Z,80.75
2022-10-19T07:59:17.408Z,80.95
2022-10-19T08:01:50.290Z,80.80
2022-10-19T08:07:14.770Z,80.03
2022-10-19T08:09:54.482Z,80.17
2022-10-19T08:12:26.625Z,80.41
2022-10-19T08:14:56.949Z,79.79
2022-10-19T08:17:28.800Z,80.09
2022-10-19T08:20:00.938Z,79.79
2022-10-19T08:22:33.203Z,79.60
2022-10-19T08:25:05.739Z,79.36
2022-10-19T08:27:37.734Z,79.58
2022-10-19T08:30:08.826Z,79.20
2022-10-19T08:32:40.717Z,78.08
2022-10-19T08:35:12.696Z,77.71
2022-10-19T08:37:45.534Z,77.68
2022-10-19T08:40:23.936Z,77.08
2022-10-19T08:43:00.879Z,76.79
2022-10-19T08:48:28.629Z,76.20
2022-10-19T08:51:01.949Z,75.70
2022-10-19T08:53:43.372Z,75.27
2022-10-19T08:56:49.475Z,74.53
2022-10-19T08:59:27.205Z,74.16
2022-10-19T09:02:03.672Z,74.24
2022-10-19T09:04:41.859Z,73.97
2022-10-19T09:07:26.468Z,73.65
2022-10-19T09:10:02.495Z,72.90
2022-10-19T09:12:44.106Z,71.97
2022-10-19T09:15:20.303Z,72.09
2022-10-19T09:17:52.246Z,71.54
2022-10-19T09:20:23.677Z,71.39
2022-10-19T09:23:04.323Z,70.74
2022-10-19T09:25:39.433Z,70.68
2022-10-19T09:28:31.552Z,70.09
2022-10-19T09:31:13.306Z,69.55
2022-10-19T09:33:52.642Z,69.12
2022-10-19T09:36:49.370Z,69.20
2022-10-19T09:39:20.899Z,68.43
2022-10-19T09:41:57.829Z,66.50
2022-10-19T09:44:31.392Z,66.62
2022-10-19T09:47:18.161Z,65.34
2022-10-19T09:49:51.345Z,65.15
2022-10-19T09:52:37.097Z,64.72
2022-10-19T09:55:21.498Z,64.50
2022-10-19T09:58:03.003Z,64.57
2022-10-19T10:00:39.062Z,64.03
2022-10-19T10:03:22.580Z,63.34
2022-10-19T10:05:56.469Z,64.01
2022-10-19T10:08:32.267Z,64.16
2022-10-19T10:11:12.671Z,64.74
2022-10-19T10:13:50.324Z,65.62
2022-10-19T10:16:24.785Z,66.24
2022-10-19T10:19:00.822Z,65.96
2022-10-19T10:21:36.473Z,65.65
2022-10-19T10:24:17.599Z,65.73
2022-10-19T10:26:51.087Z,65.42
2022-10-19T10:29:25.557Z,65.90
2022-10-19T10:32:01.255Z,66.35
2022-10-19T10:34:50.173Z,64.31
2022-10-19T10:37:27.123Z,63.88
2022-10-19T10:40:03.678Z,63.83
2022-10-19T10:42:42.801Z,63.30
2022-10-19T10:45:20.729Z,62.10
2022-10-19T10:47:54.137Z,62.52
2022-10-19T10:50:28.901Z,62.88
2022-10-19T10:53:03.269Z,63.53
2022-10-19T10:55:36.449Z,63.90
2022-10-19T10:58:16.418Z,63.41
2022-10-19T11:00:53.378Z,63.72
2022-10-19T11:03:30.483Z,63.59
2022-10-19T11:06:03.699Z,64.00
2022-10-19T11:08:44.186Z,64.01
2022-10-19T11:11:19.254Z,64.41
2022-10-19T11:13:59.141Z,64.58
2022-10-19T11:16:34.830Z,64.58
2022-10-19T11:21:56.975Z,65.46
2022-10-19T11:24:46.394Z,64.87
2022-10-19T11:27:33.487Z,64.62
2022-10-19T11:30:12.775Z,63.58
2022-10-19T11:32:58.779Z,63.88
2022-10-19T11:35:47.230Z,63.84
2022-10-19T11:38:34.121Z,64.29
2022-10-19T11:41:18.878Z,64.63
2022-10-19T11:44:04.092Z,64.19
2022-10-19T11:46:43.447Z,64.17
2022-10-19T11:49:28.809Z,63.95
2022-10-19T11:52:10.509Z,64.31
2022-10-19T11:54:54.704Z,63.82
2022-10-19T11:57:32.311Z,64.13
2022-10-19T12:00:15.213Z,64.18
2022-10-19T12:03:24.183Z,63.34
2022-10-19T12:06:08.014Z,63.58
2022-10-19T12:08:55.393Z,62.69
2022-10-19T12:11:36.687Z,62.48
2022-10-19T12:14:14.739Z,62.22
2022-10-19T12:16:51.458Z,62.62
2022-10-19T12:19:27.350Z,63.30
2022-10-19T12:22:03.695Z,64.20
2022-10-19T12:24:36.559Z,64.58
2022-10-19T12:27:12.086Z,64.92
2022-10-19T12:29:49.154Z,65.41
2022-10-19T12:32:24.741Z,65.76
2022-10-19T12:35:03.442Z,65.56
2022-10-19T12:37:41.000Z,65.34
2022-10-19T12:40:23.833Z,65.21
2022-10-19T12:43:03.296Z,65.24
2022-10-19T12:45:38.402Z,65.15
2022-10-19T12:48:22.077Z,64.46
2022-10-19T12:51:09.028Z,64.35
2022-10-19T12:53:44.393Z,63.88
2022-10-19T12:56:21.935Z,63.59
2022-10-19T12:58:57.731Z,63.58
2022-10-19T13:01:44.043Z,63.35
2022-10-19T13:04:20.562Z,64.21
2022-10-19T13:07:01.550Z,64.40
2022-10-19T13:09:36.544Z,64.52
2022-10-19T13:12:44.865Z,64.83
2022-10-19T13:15:52.430Z,65.16
2022-10-19T13:19:07.679Z,65.60
2022-10-19T13:21:50.887Z,65.63
2022-10-19T13:24:35.733Z,64.78
2022-10-19T13:27:28.387Z,63.56
2022-10-19T13:30:00.441Z,63.30
2022-10-19T13:32:37.438Z,63.23
2022-10-19T13:35:30.520Z,63.75
2022-10-19T13:38:26.450Z,64.01
2022-10-19T13:41:09.832Z,64.32
2022-10-19T13:43:52.262Z,64.34
2022-10-19T13:46:35.581Z,64.64
2022-10-19T13:49:40.373Z,64.67
2022-10-19T13:52:40.242Z,63.65
2022-10-19T13:55:47.471Z,62.99
2022-10-19T13:58:41.971Z,63.14
2022-10-19T14:01:28.204Z,63.04
2022-10-19T14:04:19.071Z,63.30
2022-10-19T14:06:55.552Z,63.58
2022-10-19T14:09:57.174Z,63.67
2022-10-19T14:12:32.221Z,64.38
2022-10-19T14:15:20.853Z,64.86
2022-10-19T14:17:52.997Z,65.27
2022-10-19T14:20:28.500Z,65.40
2022-10-19T14:23:18.703Z,65.64
2022-10-19T14:26:00.661Z,65.63
2022-10-19T14:28:36.438Z,65.83
2022-10-19T14:31:11.991Z,65.61
2022-10-19T14:33:51.371Z,65.55
2022-10-19T14:36:26.653Z,66.01
2022-10-19T14:39:02.527Z,66.43
2022-10-19T14:41:37.862Z,66.29
2022-10-19T14:44:31.588Z,66.61
2022-10-19T14:47:07.926Z,66.77
2022-10-19T14:49:39.886Z,66.83
2022-10-19T14:52:18.816Z,66.82
2022-10-19T14:54:53.547Z,67.05
2022-10-19T14:57:33.265Z,67.22
2022-10-19T15:00:10.659Z,67.34
2022-10-19T15:02:47.855Z,67.57
2022-10-19T15:05:22.951Z,68.02
2022-10-19T15:07:56.094Z,68.38
2022-10-19T15:10:37.084Z,68.86
2022-10-19T15:13:17.809Z,69.34
2022-10-19T15:15:54.133Z,69.70
2022-10-19T15:18:48.317Z,69.94
2022-10-19T15:21:23.171Z,70.48
2022-10-19T15:23:55.442Z,70.41
2022-10-19T15:26:32.486Z,70.60
2022-10-19T15:29:20.076Z,70.82
2022-10-19T15:31:56.346Z,71.03
2022-10-19T15:34:31.269Z,71.17
2022-10-19T15:37:03.866Z,71.33
2022-10-19T15:39:42.084Z,71.32
2022-10-19T15:42:39.353Z,71.52
2022-10-19T15:45:32.189Z,71.61
2022-10-19T15:48:29.190Z,71.69
2022-10-19T15:51:01.162Z,71.91
2022-10-19T15:53:32.937Z,72.08
2022-10-19T15:56:04.800Z,72.29
2022-10-19T15:58:36.743Z,72.45
2022-10-19T16:01:17.407Z,72.75
2022-10-19T16:03:49.869Z,72.83
2022-10-19T16:06:23.877Z,72.87
2022-10-19T16:08:56.404Z,73.21
2022-10-19T16:11:34.711Z,73.32
2022-10-19T16:14:06.552Z,73.42
2022-10-19T16:16:38.906Z,73.62
2022-10-19T16:19:10.925Z,73.88
2022-10-19T16:21:46.695Z,74.00
2022-10-19T16:24:22.095Z,74.18
2022-10-19T16:26:56.638Z,74.33
2022-10-19T16:29:29.160Z,74.56
2022-10-19T16:32:01.232Z,74.83
2022-10-19T16:34:31.843Z,74.98
2022-10-19T16:37:06.760Z,75.12
2022-10-19T16:39:39.489Z,75.16
2022-10-19T16:42:11.858Z,75.36
2022-10-19T16:44:42.126Z,75.66
2022-10-19T16:47:14.011Z,75.88
2022-10-19T16:49:45.845Z,76.13
2022-10-19T16:52:18.091Z,76.40
2022-10-19T16:54:50.078Z,76.49
2022-10-19T16:57:20.773Z,76.75
2022-10-19T17:00:04.837Z,76.85
2022-10-19T17:02:41.790Z,76.84
2022-10-19T17:05:16.475Z,76.95
2022-10-19T17:07:46.971Z,76.91
2022-10-19T17:10:19.718Z,77.06
2022-10-19T17:12:51.903Z,77.15
2022-10-19T17:15:42.154Z,77.22
2022-10-19T17:18:14.205Z,77.39
2022-10-19T17:20:46.134Z,77.39
2022-10-19T17:23:16.708Z,77.47
2022-10-19T17:25:51.570Z,77.51
2022-10-19T17:28:26.837Z,77.69
2022-10-19T17:31:03.382Z,77.65
2022-10-19T17:33:35.841Z,77.61
2022-10-19T17:36:10.657Z,77.79
2022-10-19T17:38:43.223Z,77.88
2022-10-19T17:41:17.200Z,77.94
2022-10-19T17:43:51.735Z,77.91
2022-10-19T17:46:25.283Z,78.05
2022-10-19T17:48:58.035Z,78.02
2022-10-19T17:51:32.397Z,78.11
2022-10-19T17:54:07.720Z,78.08
2022-10-19T17:56:44.935Z,77.89
2022-10-19T17:59:22.590Z,77.85
2022-10-19T18:02:03.362Z,77.85
2022-10-19T18:07:09.004Z,77.89
2022-10-19T18:09:41.601Z,77.97
2022-10-19T18:12:14.163Z,77.97
2022-10-19T18:14:46.860Z,78.20
2022-10-19T18:17:21.749Z,78.40
2022-10-19T18:19:57.104Z,78.54
2022-10-19T18:22:29.887Z,78.36
2022-10-19T18:25:02.215Z,78.19
2022-10-19T18:27:35.554Z,78.10
2022-10-19T18:30:10.696Z,77.88
2022-10-19T18:32:42.885Z,77.57
2022-10-19T18:35:15.643Z,77.82
2022-10-19T18:37:48.475Z,78.20
2022-10-19T18:40:22.091Z,78.42
2022-10-19T18:42:55.280Z,78.44
2022-10-19T18:45:29.752Z,78.64
2022-10-19T18:48:02.498Z,78.44
2022-10-19T18:50:35.045Z,78.32
2022-10-19T18:53:07.232Z,78.43
2022-10-19T18:55:39.298Z,78.47
2022-10-19T18:58:13.368Z,78.29
2022-10-19T19:00:46.366Z,78.51
2022-10-19T19:03:20.583Z,78.53
2022-10-19T19:05:53.110Z,78.50
2022-10-19T19:08:25.995Z,78.40
2022-10-19T19:10:58.625Z,78.54
2022-10-19T19:13:30.818Z,78.01
2022-10-19T19:16:07.862Z,77.97
2022-10-19T19:18:40.051Z,78.07
2022-10-19T19:21:18.904Z,78.05
2022-10-19T19:23:51.465Z,78.21
2022-10-19T19:26:26.406Z,78.01
2022-10-19T19:28:59.149Z,78.23
2022-10-19T19:31:31.887Z,78.31
2022-10-19T19:34:15.324Z,78.40
2022-10-19T19:36:49.565Z,78.81
2022-10-19T19:39:23.020Z,79.10
2022-10-19T19:41:54.907Z,79.09
2022-10-19T19:44:30.571Z,79.19
2022-10-19T19:47:04.773Z,79.06
2022-10-19T19:49:37.392Z,79.20
2022-10-19T19:52:09.590Z,79.16
2022-10-19T19:54:42.740Z,79.13
2022-10-19T19:57:18.146Z,79.35
2022-10-19T19:59:53.758Z,79.66
2022-10-19T20:02:25.627Z,79.71
2022-10-19T20:04:57.681Z,80.07
2022-10-19T20:07:28.279Z,80.12
2022-10-19T20:10:02.338Z,80.05
2022-10-19T20:12:35.666Z,79.76
2022-10-19T20:15:08.854Z,79.63
2022-10-19T20:17:40.963Z,79.86
2022-10-19T20:20:15.498Z,80.19
2022-10-19T20:22:50.028Z,80.51
2022-10-19T20:25:22.042Z,80.81
2022-10-19T20:27:52.513Z,81.07
2022-10-19T20:30:24.581Z,81.22
2022-10-19T20:32:55.944Z,81.45
2022-10-19T20:35:28.080Z,81.54
2022-10-19T20:38:00.203Z,81.67
2022-10-19T20:40:32.225Z,81.94
2022-10-19T20:43:02.719Z,82.08
2022-10-19T20:45:37.440Z,82.24
2022-10-19T20:48:09.456Z,82.54
2022-10-19T20:50:41.312Z,82.48
2022-10-19T20:53:13.275Z,82.28
2022-10-19T20:55:45.204Z,82.11
2022-10-19T20:58:17.157Z,82.06
2022-10-19T21:00:49.322Z,82.21
2022-10-19T21:03:21.356Z,82.29
2022-10-19T21:05:53.547Z,82.58
2022-10-19T21:08:23.798Z,82.76
2022-10-19T21:10:55.820Z,82.92
2022-10-19T21:13:27.815Z,83.05
2022-10-19T21:15:59.984Z,83.18
2022-10-19T21:18:31.849Z,83.35
2022-10-19T21:21:10.475Z,83.53
2022-10-19T21:23:43.165Z,83.79
2022-10-19T21:26:15.558Z,83.99
2022-10-19T21:28:50.728Z,84.24
2022-10-19T21:31:24.356Z,84.30
2022-10-19T21:33:56.606Z,84.43
2022-10-19T21:36:27.012Z,84.40
2022-10-19T21:38:59.081Z,84.47
2022-10-19T21:41:30.915Z,84.51
2022-10-19T21:44:03.462Z,84.61
2022-10-19T21:46:35.591Z,84.81
2022-10-19T21:49:07.551Z,84.89
2022-10-19T21:51:43.605Z,85.09
2022-10-19T21:54:17.744Z,84.74
2022-10-19T21:56:50.165Z,84.25
2022-10-19T21:59:22.060Z,84.17
2022-10-19T22:01:55.312Z,83.88
2022-10-19T22:04:27.231Z,83.66
2022-10-19T22:06:59.595Z,83.38
2022-10-19T22:09:31.470Z,82.85
2022-10-19T22:12:03.532Z,82.61
2022-10-19T22:14:34.109Z,82.28
2022-10-19T22:17:06.199Z,82.57
2022-10-19T22:19:38.176Z,82.63
2022-10-19T22:22:10.085Z,82.82
2022-10-19T22:24:42.150Z,82.99
2022-10-19T22:27:14.025Z,83.06
2022-10-19T22:29:45.989Z,83.01
2022-10-19T22:32:18.044Z,82.28
2022-10-19T22:34:50.380Z,81.83
2022-10-19T22:37:22.264Z,81.66
2022-10-19T22:39:54.356Z,81.63
2022-10-19T22:42:24.991Z,81.58
2022-10-19T22:44:57.076Z,81.65
2022-10-19T22:47:29.059Z,81.38
2022-10-19T22:50:01.431Z,81.33
2022-10-19T22:52:33.743Z,81.41
2022-10-19T22:55:06.238Z,80.91
2022-10-19T22:57:38.242Z,80.76
2022-10-19T23:00:12.753Z,80.98
2022-10-19T23:02:44.884Z,81.41
2022-10-19T23:05:17.706Z,81.39
2022-10-19T23:07:49.757Z,81.38
2022-10-19T23:10:21.688Z,81.48
2022-10-19T23:12:54.559Z,81.56
2022-10-19T23:15:26.731Z,81.77
2022-10-19T23:18:00.462Z,81.77
2022-10-19T23:20:32.657Z,81.88
2022-10-19T23:23:02.979Z,81.81
2022-10-19T23:25:34.995Z,81.67
2022-10-19T23:28:07.300Z,81.77
2022-10-19T23:30:41.272Z,81.71
2022-10-19T23:33:13.112Z,82.04
2022-10-19T23:35:45.091Z,82.07
2022-10-19T23:38:17.145Z,81.90
2022-10-19T23:40:47.532Z,81.55
2022-10-19T23:43:19.458Z,81.56
2022-10-19T23:45:51.417Z,81.44
2022-10-19T23:48:23.483Z,81.11
2022-10-19T23:51:00.559Z,81.05
2022-10-19T23:53:38.439Z,81.27
2022-10-19T23:56:16.123Z,81.36
2022-10-19T23:58:48.498Z,81.09
